sensor_id;sensor_type;location;lat;lon;timestamp;pressure;altitude;pressure_sealevel;temperature;humidity
42761;BME280;31672;47.638;19.026;2023-02-15T00:01:13;101816.97;;;-2.47;95.33
42761;BME280;31672;47.638;19.026;2023-02-15T00:06:17;101820.41;;;-2.46;95.45
42761;BME280;31672;47.638;19.026;2023-02-15T00:11:20;101815.38;;;-2.51;95.82
42761;BME280;31672;47.638;19.026;2023-02-15T00:16:43;101827.66;;;-2.56;96.04
42761;BME280;31672;47.638;19.026;2023-02-15T00:21:48;101821.84;;;-2.65;95.96
42761;BME280;31672;47.638;19.026;2023-02-15T00:26:52;101829.88;;;-2.73;96.20
42761;BME280;31672;47.638;19.026;2023-02-15T00:31:55;101826.56;;;-2.78;96.27
42761;BME280;31672;47.638;19.026;2023-02-15T00:36:58;101822.38;;;-2.84;96.34
42761;BME280;31672;47.638;19.026;2023-02-15T00:42:02;101831.09;;;-2.85;96.65
42761;BME280;31672;47.638;19.026;2023-02-15T00:47:05;101825.19;;;-2.91;96.68
42761;BME280;31672;47.638;19.026;2023-02-15T00:52:07;101814.97;;;-2.98;96.58
42761;BME280;31672;47.638;19.026;2023-02-15T00:57:10;101829.72;;;-2.98;96.91
42761;BME280;31672;47.638;19.026;2023-02-15T01:02:14;101810.84;;;-3.05;97.02
42761;BME280;31672;47.638;19.026;2023-02-15T01:07:17;101811.72;;;-3.06;97.41
42761;BME280;31672;47.638;19.026;2023-02-15T01:12:19;101817.69;;;-3.02;97.37
42761;BME280;31672;47.638;19.026;2023-02-15T01:17:23;101814.19;;;-3.01;97.62
42761;BME280;31672;47.638;19.026;2023-02-15T01:22:26;101814.19;;;-3.01;98.01
42761;BME280;31672;47.638;19.026;2023-02-15T01:27:29;101812.47;;;-3.02;98.17
42761;BME280;31672;47.638;19.026;2023-02-15T01:32:33;101810.09;;;-3.10;98.04
42761;BME280;31672;47.638;19.026;2023-02-15T01:37:36;101805.78;;;-3.11;97.90
42761;BME280;31672;47.638;19.026;2023-02-15T01:42:40;101806.75;;;-3.15;98.19
42761;BME280;31672;47.638;19.026;2023-02-15T01:53:34;101801.88;;;-3.27;98.37
42761;BME280;31672;47.638;19.026;2023-02-15T01:58:40;101813.34;;;-3.34;98.19
42761;BME280;31672;47.638;19.026;2023-02-15T02:03:53;101810.91;;;-3.40;98.52
42761;BME280;31672;47.638;19.026;2023-02-15T02:09:01;101812.84;;;-3.48;98.90
42761;BME280;31672;47.638;19.026;2023-02-15T02:14:04;101806.94;;;-3.54;98.62
42761;BME280;31672;47.638;19.026;2023-02-15T02:24:52;101807.09;;;-3.61;98.83
42761;BME280;31672;47.638;19.026;2023-02-15T02:47:10;101814.28;;;-3.71;99.24
42761;BME280;31672;47.638;19.026;2023-02-15T02:52:44;101804.00;;;-3.75;99.40
42761;BME280;31672;47.638;19.026;2023-02-15T02:58:26;101796.16;;;-3.74;99.82
42761;BME280;31672;47.638;19.026;2023-02-15T03:03:40;101803.78;;;-3.68;99.71
42761;BME280;31672;47.638;19.026;2023-02-15T03:09:14;101810.69;;;-3.67;100.00
42761;BME280;31672;47.638;19.026;2023-02-15T03:14:19;101806.34;;;-3.66;100.00
42761;BME280;31672;47.638;19.026;2023-02-15T03:19:27;101807.94;;;-3.61;100.00
42761;BME280;31672;47.638;19.026;2023-02-15T03:24:49;101796.53;;;-3.55;100.00
42761;BME280;31672;47.638;19.026;2023-02-15T03:29:58;101800.00;;;-3.55;100.00
42761;BME280;31672;47.638;19.026;2023-02-15T03:35:02;101799.28;;;-3.60;100.00
42761;BME280;31672;47.638;19.026;2023-02-15T03:40:24;101804.59;;;-3.66;100.00
42761;BME280;31672;47.638;19.026;2023-02-15T03:45:52;101812.53;;;-3.72;100.00
42761;BME280;31672;47.638;19.026;2023-02-15T03:51:05;101800.53;;;-3.76;100.00
42761;BME280;31672;47.638;19.026;2023-02-15T03:56:29;101802.34;;;-3.80;100.00
42761;BME280;31672;47.638;19.026;2023-02-15T04:01:41;101806.78;;;-3.83;100.00
42761;BME280;31672;47.638;19.026;2023-02-15T04:07:02;101805.09;;;-3.86;100.00
42761;BME280;31672;47.638;19.026;2023-02-15T04:12:06;101801.66;;;-3.86;100.00
42761;BME280;31672;47.638;19.026;2023-02-15T04:17:09;101800.75;;;-3.85;100.00
42761;BME280;31672;47.638;19.026;2023-02-15T04:22:12;101806.84;;;-3.86;100.00
42761;BME280;31672;47.638;19.026;2023-02-15T04:27:34;101803.50;;;-3.91;100.00
42761;BME280;31672;47.638;19.026;2023-02-15T04:32:38;101801.00;;;-3.96;100.00
42761;BME280;31672;47.638;19.026;2023-02-15T04:37:42;101794.25;;;-4.01;100.00
42761;BME280;31672;47.638;19.026;2023-02-15T04:42:48;101803.84;;;-4.05;100.00
42761;BME280;31672;47.638;19.026;2023-02-15T04:47:51;101815.13;;;-4.06;100.00
42761;BME280;31672;47.638;19.026;2023-02-15T04:52:54;101826.34;;;-4.06;100.00
42761;BME280;31672;47.638;19.026;2023-02-15T04:57:57;101820.22;;;-4.03;100.00
42761;BME280;31672;47.638;19.026;2023-02-15T05:03:00;101818.41;;;-3.99;100.00
42761;BME280;31672;47.638;19.026;2023-02-15T05:08:03;101817.47;;;-3.95;100.00
42761;BME280;31672;47.638;19.026;2023-02-15T05:13:06;101820.06;;;-3.95;100.00
42761;BME280;31672;47.638;19.026;2023-02-15T05:18:10;101819.28;;;-3.99;100.00
42761;BME280;31672;47.638;19.026;2023-02-15T05:23:13;101827.16;;;-4.04;100.00
42761;BME280;31672;47.638;19.026;2023-02-15T05:28:16;101827.38;;;-4.13;100.00
42761;BME280;31672;47.638;19.026;2023-02-15T05:33:22;101838.72;;;-4.17;100.00
42761;BME280;31672;47.638;19.026;2023-02-15T05:38:25;101844.03;;;-4.23;100.00
42761;BME280;31672;47.638;19.026;2023-02-15T05:43:29;101844.03;;;-4.23;100.00
42761;BME280;31672;47.638;19.026;2023-02-15T05:48:32;101855.31;;;-4.24;100.00
42761;BME280;31672;47.638;19.026;2023-02-15T05:53:37;101856.13;;;-4.22;100.00
42761;BME280;31672;47.638;19.026;2023-02-15T05:58:42;101861.28;;;-4.20;100.00
42761;BME280;31672;47.638;19.026;2023-02-15T06:03:45;101856.97;;;-4.21;100.00
42761;BME280;31672;47.638;19.026;2023-02-15T06:08:49;101856.94;;;-4.20;100.00
42761;BME280;31672;47.638;19.026;2023-02-15T06:13:52;101859.47;;;-4.17;100.00
42761;BME280;31672;47.638;19.026;2023-02-15T06:18:55;101862.75;;;-4.09;100.00
42761;BME280;31672;47.638;19.026;2023-02-15T06:23:58;101868.69;;;-4.04;100.00
42761;BME280;31672;47.638;19.026;2023-02-15T06:29:02;101867.66;;;-3.95;100.00
42761;BME280;31672;47.638;19.026;2023-02-15T06:34:06;101864.03;;;-3.88;100.00
42761;BME280;31672;47.638;19.026;2023-02-15T06:39:09;101886.19;;;-3.73;100.00
42761;BME280;31672;47.638;19.026;2023-02-15T06:44:12;101873.88;;;-3.65;100.00
42761;BME280;31672;47.638;19.026;2023-02-15T06:49:15;101875.34;;;-3.53;100.00
42761;BME280;31672;47.638;19.026;2023-02-15T06:54:20;101884.44;;;-3.35;100.00
42761;BME280;31672;47.638;19.026;2023-02-15T06:59:23;101881.53;;;-3.25;100.00
42761;BME280;31672;47.638;19.026;2023-02-15T07:04:26;101881.91;;;-3.04;100.00
42761;BME280;31672;47.638;19.026;2023-02-15T07:09:32;101882.25;;;-2.85;100.00
42761;BME280;31672;47.638;19.026;2023-02-15T07:14:35;101881.66;;;-2.64;100.00
42761;BME280;31672;47.638;19.026;2023-02-15T07:19:38;101887.19;;;-2.44;100.00
42761;BME280;31672;47.638;19.026;2023-02-15T07:24:41;101878.72;;;-2.22;100.00
42761;BME280;31672;47.638;19.026;2023-02-15T07:29:43;101871.91;;;-1.97;100.00
42761;BME280;31672;47.638;19.026;2023-02-15T07:34:46;101857.31;;;-1.48;100.00
42761;BME280;31672;47.638;19.026;2023-02-15T07:39:50;101862.00;;;0.11;100.00
42761;BME280;31672;47.638;19.026;2023-02-15T07:44:53;101860.16;;;1.76;100.00
42761;BME280;31672;47.638;19.026;2023-02-15T07:49:56;101843.38;;;3.05;100.00
42761;BME280;31672;47.638;19.026;2023-02-15T07:54:59;101839.38;;;4.11;100.00
42761;BME280;31672;47.638;19.026;2023-02-15T08:00:03;101835.63;;;5.05;100.00
42761;BME280;31672;47.638;19.026;2023-02-15T08:05:08;101824.69;;;5.69;98.72
42761;BME280;31672;47.638;19.026;2023-02-15T08:10:11;101826.03;;;5.76;93.78
42761;BME280;31672;47.638;19.026;2023-02-15T08:15:34;101824.28;;;5.75;89.79
42761;BME280;31672;47.638;19.026;2023-02-15T08:20:37;101816.00;;;5.81;84.91
42761;BME280;31672;47.638;19.026;2023-02-15T08:25:40;101806.69;;;6.16;80.97
42761;BME280;31672;47.638;19.026;2023-02-15T08:30:43;101799.44;;;6.73;77.77
42761;BME280;31672;47.638;19.026;2023-02-15T08:35:46;101803.34;;;7.05;73.72
42761;BME280;31672;47.638;19.026;2023-02-15T08:40:49;101798.81;;;7.33;72.09
42761;BME280;31672;47.638;19.026;2023-02-15T08:45:52;101792.22;;;7.51;69.59
42761;BME280;31672;47.638;19.026;2023-02-15T08:50:55;101795.00;;;7.73;67.62
42761;BME280;31672;47.638;19.026;2023-02-15T08:55:59;101799.31;;;7.87;66.29
42761;BME280;31672;47.638;19.026;2023-02-15T09:01:17;101791.00;;;7.68;64.72
42761;BME280;31672;47.638;19.026;2023-02-15T09:06:22;101788.09;;;7.84;64.34
42761;BME280;31672;47.638;19.026;2023-02-15T09:11:28;101785.69;;;7.81;63.61
42761;BME280;31672;47.638;19.026;2023-02-15T09:16:34;101783.94;;;7.92;62.99
42761;BME280;31672;47.638;19.026;2023-02-15T09:21:38;101786.06;;;8.35;62.97
42761;BME280;31672;47.638;19.026;2023-02-15T09:26:44;101786.69;;;8.85;61.24
42761;BME280;31672;47.638;19.026;2023-02-15T09:31:49;101778.41;;;9.23;59.81
42761;BME280;31672;47.638;19.026;2023-02-15T09:36:53;101765.75;;;9.49;59.62
42761;BME280;31672;47.638;19.026;2023-02-15T09:58:51;101748.00;;;11.09;54.33
42761;BME280;31672;47.638;19.026;2023-02-15T10:37:32;101713.06;;;11.33;51.68
42761;BME280;31672;47.638;19.026;2023-02-15T10:43:25;101712.41;;;11.50;49.91
42761;BME280;31672;47.638;19.026;2023-02-15T11:16:05;101653.72;;;13.03;45.58
42761;BME280;31672;47.638;19.026;2023-02-15T11:21:38;101645.47;;;12.97;45.89
42761;BME280;31672;47.638;19.026;2023-02-15T11:26:54;101652.31;;;12.72;45.60
42761;BME280;31672;47.638;19.026;2023-02-15T11:37:22;101635.75;;;12.78;46.83
42761;BME280;31672;47.638;19.026;2023-02-15T11:42:27;101631.78;;;12.35;45.19
42761;BME280;31672;47.638;19.026;2023-02-15T11:47:33;101627.75;;;12.31;46.02
42761;BME280;31672;47.638;19.026;2023-02-15T11:52:36;101618.63;;;12.33;46.59
42761;BME280;31672;47.638;19.026;2023-02-15T11:57:44;101616.38;;;12.29;46.74
42761;BME280;31672;47.638;19.026;2023-02-15T12:02:53;101613.91;;;12.08;46.32
42761;BME280;31672;47.638;19.026;2023-02-15T12:08:03;101612.66;;;11.44;46.45
42761;BME280;31672;47.638;19.026;2023-02-15T12:13:17;101598.47;;;10.65;47.98
42761;BME280;31672;47.638;19.026;2023-02-15T12:23:48;101592.91;;;9.75;50.75
42761;BME280;31672;47.638;19.026;2023-02-15T12:28:52;101592.09;;;9.42;51.79
42761;BME280;31672;47.638;19.026;2023-02-15T12:34:00;101577.69;;;9.24;52.63
42761;BME280;31672;47.638;19.026;2023-02-15T12:44:21;101571.34;;;9.04;53.54
42761;BME280;31672;47.638;19.026;2023-02-15T12:49:29;101566.78;;;8.95;53.84
42761;BME280;31672;47.638;19.026;2023-02-15T12:54:41;101564.25;;;8.93;54.20
42761;BME280;31672;47.638;19.026;2023-02-15T13:05:29;101548.09;;;8.96;55.06
42761;BME280;31672;47.638;19.026;2023-02-15T13:15:46;101535.22;;;8.92;55.09
42761;BME280;31672;47.638;19.026;2023-02-15T13:20:51;101536.19;;;8.91;54.95
42761;BME280;31672;47.638;19.026;2023-02-15T13:26:02;101524.88;;;8.89;55.04
42761;BME280;31672;47.638;19.026;2023-02-15T13:31:18;101517.91;;;8.88;55.05
42761;BME280;31672;47.638;19.026;2023-02-15T13:36:30;101523.28;;;8.86;55.34
42761;BME280;31672;47.638;19.026;2023-02-15T13:47:23;101513.56;;;8.75;55.80
42761;BME280;31672;47.638;19.026;2023-02-15T13:52:29;101512.13;;;8.71;55.87
42761;BME280;31672;47.638;19.026;2023-02-15T13:58:09;101506.97;;;8.70;55.77
42761;BME280;31672;47.638;19.026;2023-02-15T14:03:59;101505.41;;;8.67;55.86
42761;BME280;31672;47.638;19.026;2023-02-15T14:20:46;101505.66;;;8.64;56.20
42761;BME280;31672;47.638;19.026;2023-02-15T14:31:32;101504.00;;;8.52;56.39
42761;BME280;31672;47.638;19.026;2023-02-15T14:36:37;101514.34;;;8.44;56.60
42761;BME280;31672;47.638;19.026;2023-02-15T14:41:49;101503.53;;;8.36;56.39
42761;BME280;31672;47.638;19.026;2023-02-15T14:47:10;101499.38;;;8.31;56.69
42761;BME280;31672;47.638;19.026;2023-02-15T14:52:17;101502.88;;;8.21;56.85
42761;BME280;31672;47.638;19.026;2023-02-15T14:57:25;101490.72;;;8.07;57.11
42761;BME280;31672;47.638;19.026;2023-02-15T15:02:48;101485.56;;;7.94;57.59
42761;BME280;31672;47.638;19.026;2023-02-15T15:07:56;101473.28;;;7.82;57.71
42761;BME280;31672;47.638;19.026;2023-02-15T15:18:47;101474.78;;;7.51;58.26
42761;BME280;31672;47.638;19.026;2023-02-15T15:23:50;101476.78;;;7.36;58.52
42761;BME280;31672;47.638;19.026;2023-02-15T15:28:57;101475.78;;;7.15;59.07
42761;BME280;31672;47.638;19.026;2023-02-15T15:51:30;101470.66;;;5.78;62.29
42761;BME280;31672;47.638;19.026;2023-02-15T15:56:36;101465.56;;;5.49;63.59
42761;BME280;31672;47.638;19.026;2023-02-15T16:01:43;101463.22;;;5.32;64.50
42761;BME280;31672;47.638;19.026;2023-02-15T16:06:46;101473.72;;;5.06;64.99
42761;BME280;31672;47.638;19.026;2023-02-15T16:11:56;101477.50;;;4.75;66.08
42761;BME280;31672;47.638;19.026;2023-02-15T16:17:17;101482.84;;;4.47;66.76
42761;BME280;31672;47.638;19.026;2023-02-15T16:22:25;101480.53;;;4.28;67.97
42761;BME280;31672;47.638;19.026;2023-02-15T16:27:38;101492.00;;;4.13;68.84
42761;BME280;31672;47.638;19.026;2023-02-15T16:32:43;101487.22;;;3.91;68.96
42761;BME280;31672;47.638;19.026;2023-02-15T16:37:46;101497.34;;;3.68;69.20
42761;BME280;31672;47.638;19.026;2023-02-15T16:43:19;101496.63;;;3.36;69.85
42761;BME280;31672;47.638;19.026;2023-02-15T16:48:26;101506.00;;;3.10;70.93
42761;BME280;31672;47.638;19.026;2023-02-15T16:53:30;101502.75;;;2.91;71.60
42761;BME280;31672;47.638;19.026;2023-02-15T16:58:41;101505.22;;;2.78;72.51
42761;BME280;31672;47.638;19.026;2023-02-15T17:03:49;101513.03;;;2.64;73.31
42761;BME280;31672;47.638;19.026;2023-02-15T17:09:13;101520.78;;;2.50;73.98
42761;BME280;31672;47.638;19.026;2023-02-15T17:14:26;101525.63;;;2.41;74.64
42761;BME280;31672;47.638;19.026;2023-02-15T17:19:33;101521.88;;;2.30;75.08
42761;BME280;31672;47.638;19.026;2023-02-15T17:24:43;101521.75;;;2.15;75.71
42761;BME280;31672;47.638;19.026;2023-02-15T17:29:57;101525.28;;;1.99;76.16
42761;BME280;31672;47.638;19.026;2023-02-15T17:35:21;101526.38;;;1.77;76.47
42761;BME280;31672;47.638;19.026;2023-02-15T17:40:31;101523.78;;;1.60;76.77
42761;BME280;31672;47.638;19.026;2023-02-15T17:45:48;101521.16;;;1.43;77.49
42761;BME280;31672;47.638;19.026;2023-02-15T17:50:51;101517.63;;;1.26;78.13
42761;BME280;31672;47.638;19.026;2023-02-15T17:55:55;101519.97;;;1.14;78.56
42761;BME280;31672;47.638;19.026;2023-02-15T18:01:10;101525.13;;;0.98;79.41
42761;BME280;31672;47.638;19.026;2023-02-15T18:06:40;101527.25;;;0.90;80.10
42761;BME280;31672;47.638;19.026;2023-02-15T18:17:17;101519.38;;;0.72;81.58
42761;BME280;31672;47.638;19.026;2023-02-15T18:22:21;101518.19;;;0.61;81.71
42761;BME280;31672;47.638;19.026;2023-02-15T18:27:25;101515.13;;;0.51;82.40
42761;BME280;31672;47.638;19.026;2023-02-15T18:32:34;101512.66;;;0.48;83.43
42761;BME280;31672;47.638;19.026;2023-02-15T18:37:38;101522.78;;;0.56;84.57
42761;BME280;31672;47.638;19.026;2023-02-15T18:42:43;101524.38;;;0.58;85.32
42761;BME280;31672;47.638;19.026;2023-02-15T18:47:56;101530.41;;;0.60;85.37
42761;BME280;31672;47.638;19.026;2023-02-15T18:53:04;101526.38;;;0.53;85.04
42761;BME280;31672;47.638;19.026;2023-02-15T18:58:16;101524.47;;;0.38;85.28
42761;BME280;31672;47.638;19.026;2023-02-15T19:03:22;101520.13;;;0.18;85.46
42761;BME280;31672;47.638;19.026;2023-02-15T19:08:25;101518.28;;;0.01;85.37
42761;BME280;31672;47.638;19.026;2023-02-15T19:13:28;101525.03;;;-0.14;86.24
42761;BME280;31672;47.638;19.026;2023-02-15T19:18:32;101524.66;;;-0.25;86.39
42761;BME280;31672;47.638;19.026;2023-02-15T19:23:35;101520.75;;;-0.35;86.80
42761;BME280;31672;47.638;19.026;2023-02-15T19:28:38;101520.47;;;-0.49;86.97
42761;BME280;31672;47.638;19.026;2023-02-15T19:33:42;101526.34;;;-0.65;87.05
42761;BME280;31672;47.638;19.026;2023-02-15T19:38:48;101513.84;;;-0.78;87.51
42761;BME280;31672;47.638;19.026;2023-02-15T19:43:53;101523.94;;;-0.91;87.70
42761;BME280;31672;47.638;19.026;2023-02-15T19:48:57;101525.28;;;-1.03;87.85
42761;BME280;31672;47.638;19.026;2023-02-15T19:54:01;101530.88;;;-1.12;88.51
42761;BME280;31672;47.638;19.026;2023-02-15T19:59:22;101528.63;;;-1.21;88.87
42761;BME280;31672;47.638;19.026;2023-02-15T20:04:25;101524.69;;;-1.31;89.27
42761;BME280;31672;47.638;19.026;2023-02-15T20:09:32;101530.16;;;-1.38;89.44
42761;BME280;31672;47.638;19.026;2023-02-15T20:14:37;101523.44;;;-1.45;89.43
42761;BME280;31672;47.638;19.026;2023-02-15T20:19:39;101513.25;;;-1.51;89.73
42761;BME280;31672;47.638;19.026;2023-02-15T20:24:43;101509.09;;;-1.55;90.58
42761;BME280;31672;47.638;19.026;2023-02-15T20:29:46;101510.16;;;-1.60;90.72
42761;BME280;31672;47.638;19.026;2023-02-15T20:34:49;101517.41;;;-1.69;90.79
42761;BME280;31672;47.638;19.026;2023-02-15T20:39:52;101513.34;;;-1.76;91.19
42761;BME280;31672;47.638;19.026;2023-02-15T20:44:56;101508.25;;;-1.79;91.34
42761;BME280;31672;47.638;19.026;2023-02-15T20:49:59;101517.84;;;-1.79;91.72
42761;BME280;31672;47.638;19.026;2023-02-15T20:55:25;101519.63;;;-1.81;91.97
42761;BME280;31672;47.638;19.026;2023-02-15T21:00:30;101511.19;;;-1.88;92.02
42761;BME280;31672;47.638;19.026;2023-02-15T21:05:33;101511.56;;;-1.99;92.20
42761;BME280;31672;47.638;19.026;2023-02-15T21:10:37;101518.81;;;-2.07;92.35
42761;BME280;31672;47.638;19.026;2023-02-15T21:15:40;101512.06;;;-2.12;93.01
42761;BME280;31672;47.638;19.026;2023-02-15T21:20:46;101519.13;;;-2.16;93.29
42761;BME280;31672;47.638;19.026;2023-02-15T21:25:50;101522.78;;;-2.20;93.48
42761;BME280;31672;47.638;19.026;2023-02-15T21:30:55;101529.75;;;-2.21;93.83
42761;BME280;31672;47.638;19.026;2023-02-15T21:36:01;101515.44;;;-2.09;94.68
42761;BME280;31672;47.638;19.026;2023-02-15T21:41:04;101516.56;;;-1.93;95.20
42761;BME280;31672;47.638;19.026;2023-02-15T21:46:26;101511.03;;;-1.83;95.32
42761;BME280;31672;47.638;19.026;2023-02-15T21:51:48;101508.06;;;-1.74;95.77
42761;BME280;31672;47.638;19.026;2023-02-15T21:57:16;101507.28;;;-1.76;95.67
42761;BME280;31672;47.638;19.026;2023-02-15T22:02:28;101510.03;;;-1.81;95.79
42761;BME280;31672;47.638;19.026;2023-02-15T22:07:32;101512.72;;;-1.82;96.26
42761;BME280;31672;47.638;19.026;2023-02-15T22:12:36;101503.38;;;-1.88;95.88
42761;BME280;31672;47.638;19.026;2023-02-15T22:17:39;101514.16;;;-1.97;96.08
42761;BME280;31672;47.638;19.026;2023-02-15T22:22:42;101508.50;;;-2.10;96.27
42761;BME280;31672;47.638;19.026;2023-02-15T22:27:46;101517.66;;;-2.23;96.39
42761;BME280;31672;47.638;19.026;2023-02-15T22:32:53;101510.25;;;-2.34;96.36
42761;BME280;31672;47.638;19.026;2023-02-15T22:37:56;101516.59;;;-2.43;96.55
42761;BME280;31672;47.638;19.026;2023-02-15T22:43:03;101523.72;;;-2.48;96.70
42761;BME280;31672;47.638;19.026;2023-02-15T22:48:09;101523.94;;;-2.54;96.97
42761;BME280;31672;47.638;19.026;2023-02-15T22:53:13;101523.28;;;-2.60;97.16
42761;BME280;31672;47.638;19.026;2023-02-15T22:58:22;101524.41;;;-2.67;97.13
42761;BME280;31672;47.638;19.026;2023-02-15T23:03:27;101518.56;;;-2.74;97.11
42761;BME280;31672;47.638;19.026;2023-02-15T23:08:34;101522.22;;;-2.80;97.40
42761;BME280;31672;47.638;19.026;2023-02-15T23:13:37;101525.81;;;-2.84;97.51
42761;BME280;31672;47.638;19.026;2023-02-15T23:18:45;101519.09;;;-2.91;97.80
42761;BME280;31672;47.638;19.026;2023-02-15T23:23:55;101513.25;;;-2.98;97.84
42761;BME280;31672;47.638;19.026;2023-02-15T23:29:00;101511.75;;;-3.05;97.91
42761;BME280;31672;47.638;19.026;2023-02-15T23:34:23;101504.09;;;-3.09;98.07
42761;BME280;31672;47.638;19.026;2023-02-15T23:39:27;101498.97;;;-3.12;98.26
42761;BME280;31672;47.638;19.026;2023-02-15T23:44:49;101506.09;;;-3.17;98.45
42761;BME280;31672;47.638;19.026;2023-02-15T23:49:53;101494.88;;;-3.19;98.47
42761;BME280;31672;47.638;19.026;2023-02-15T23:54:56;101493.22;;;-3.22;98.42
42761;BME280;31672;47.638;19.026;2023-02-15T23:59:59;101491.63;;;-3.26;98.67
